^^
Marion, Virginia Banner
 

Adwolf, VA. Station Historical Data
[ Providing Data Since 6/07/2007 ]
Station Historical Data
 
Daily Summary for November 20, 2017 Units:  Both    English   Metric
« Previous Day
Next Day »
Daily Weekly Monthly Yearly Custom
  Current: High: Low: Average:
Temperature: 33.9 °F /  1.1 °C 48.3 °F /  9.1 °C 24.3 °F /  -4.3 °C 34.7 °F /  1.5 °C
Dew Point: 25.8 °F /  -3.4 °C 27.8 °F /  -2.3 °C 19.8 °F /  -6.8 °C 23.7 °F /  -4.6 °C
Humidity: 72% 91% 33% 68%
Wind Speed: 2.3mph /  3.7km/h 10.0mph /  16.1km/h - 4.2mph /  6.8km/h
Wind Gust: 2.3mph /  3.7km/h 10.0mph /  16.1km/h - -
WindWest - - WSW
Pressure: 30.25 in /  1024.3 hPa 30.36 in /  1028 hPa 30.19 in /  1022.2 hPa -
Precipitation: 0.00 in /  0 mm      
Historical Graphs
 
 
Tabular Data for November 20, 2017
Time Temperature Dew Point Pressure Wind Wind Speed Wind Gust Humidity Rainfall Rate (Hourly) solar Conditions
00:00 30.8 °F /  -0.7 °C 23.8 °F /  -4.6 °C 30.19in /  1022.2hPa WSW 8.0mph /  12.9km/h 8.0mph /  12.9km/h 75% 0.00in /  0mm WeatherDisplay:10.37 W/m2 BKN
00:05 30.8 °F /  -0.7 °C 23.8 °F /  -4.6 °C 30.19in /  1022.2hPa WSW 5.8mph /  9.3km/h 5.8mph /  9.3km/h 75% 0.00in /  0mm WeatherDisplay:10.37 W/m2 BKN
00:10 30.7 °F /  -0.7 °C 23.7 °F /  -4.6 °C 30.19in /  1022.2hPa SW 5.8mph /  9.3km/h 5.8mph /  9.3km/h 75% 0.00in /  0mm WeatherDisplay:10.37 W/m2 RA
00:15 30.3 °F /  -0.9 °C 23.6 °F /  -4.7 °C 30.20in /  1022.6hPa SW 3.5mph /  5.6km/h 3.5mph /  5.6km/h 76% 0.00in /  0mm WeatherDisplay:10.37 W/m2 BKN
00:20 30.2 °F /  -1 °C 23.9 °F /  -4.5 °C 30.20in /  1022.6hPa SW 4.0mph /  6.4km/h 4.0mph /  6.4km/h 77% 0.00in /  0mm WeatherDisplay:10.37 W/m2 BKN
00:30 29.7 °F /  -1.3 °C 23.7 °F /  -4.6 °C 30.20in /  1022.6hPa SSW 3.5mph /  5.6km/h 3.5mph /  5.6km/h 78% 0.00in /  0mm WeatherDisplay:10.37 W/m2 BKN
00:40 29.3 °F /  -1.5 °C 23.9 °F /  -4.5 °C 30.21in /  1022.9hPa SW 3.5mph /  5.6km/h 3.5mph /  5.6km/h 80% 0.00in /  0mm WeatherDisplay:10.37 W/m2 BKN
00:50 29.4 °F /  -1.4 °C 23.7 °F /  -4.6 °C 30.21in /  1022.9hPa SW 4.6mph /  7.4km/h 4.6mph /  7.4km/h 79% 0.00in /  0mm WeatherDisplay:10.37 W/m2 OVC
00:55 29.3 °F /  -1.5 °C 23.9 °F /  -4.5 °C 30.21in /  1022.9hPa SW 4.6mph /  7.4km/h 4.6mph /  7.4km/h 80% 0.00in /  0mm WeatherDisplay:10.37 W/m2 OVC
01:00 29.2 °F /  -1.6 °C 23.8 °F /  -4.6 °C 30.21in /  1022.9hPa SW 3.5mph /  5.6km/h 3.6mph /  5.8km/h 80% 0.00in /  0mm WeatherDisplay:10.37 W/m2 OVC
01:10 29.1 °F /  -1.6 °C 24.0 °F /  -4.4 °C 30.21in /  1022.9hPa WSW 5.8mph /  9.3km/h 5.8mph /  9.3km/h 81% 0.00in /  0mm WeatherDisplay:10.37 W/m2 OVC
01:15 29.1 °F /  -1.6 °C 24.0 °F /  -4.4 °C 30.21in /  1022.9hPa SW 5.8mph /  9.3km/h 5.8mph /  9.3km/h 81% 0.00in /  0mm WeatherDisplay:10.37 W/m2 OVC
01:20 29.0 °F /  -1.7 °C 23.6 °F /  -4.7 °C 30.21in /  1022.9hPa WSW 4.6mph /  7.4km/h 4.6mph /  7.4km/h 80% 0.00in /  0mm WeatherDisplay:10.37 W/m2 SCT
01:25 29.0 °F /  -1.7 °C 23.9 °F /  -4.5 °C 30.21in /  1022.9hPa WSW 4.0mph /  6.4km/h 4.0mph /  6.4km/h 81% 0.00in /  0mm WeatherDisplay:10.37 W/m2 CLR
01:35 28.8 °F /  -1.8 °C 23.7 °F /  -4.6 °C 30.21in /  1022.9hPa South 3.5mph /  5.6km/h 3.5mph /  5.6km/h 81% 0.00in /  0mm WeatherDisplay:10.37 W/m2 CLR
01:40 28.9 °F /  -1.7 °C 23.8 °F /  -4.6 °C 30.21in /  1022.9hPa WSW 3.5mph /  5.6km/h 3.5mph /  5.6km/h 81% 0.00in /  0mm WeatherDisplay:10.37 W/m2 CLR
01:45 28.9 °F /  -1.7 °C 23.8 °F /  -4.6 °C 30.21in /  1022.9hPa WSW 6.0mph /  9.7km/h 6.0mph /  9.7km/h 81% 0.00in /  0mm WeatherDisplay:10.37 W/m2 CLR
01:50 29.0 °F /  -1.7 °C 23.6 °F /  -4.7 °C 30.21in /  1022.9hPa WSW 5.0mph /  8km/h 5.0mph /  8km/h 80% 0.00in /  0mm WeatherDisplay:10.37 W/m2 CLR
02:00 29.0 °F /  -1.7 °C 23.6 °F /  -4.7 °C 30.22in /  1023.2hPa WSW 4.6mph /  7.4km/h 4.6mph /  7.4km/h 80% 0.00in /  0mm WeatherDisplay:10.37 W/m2 SCT
02:05 28.9 °F /  -1.7 °C 23.8 °F /  -4.6 °C 30.21in /  1022.9hPa WSW 3.5mph /  5.6km/h 3.5mph /  5.6km/h 81% 0.00in /  0mm WeatherDisplay:10.37 W/m2 SCT
02:10 28.8 °F /  -1.8 °C 23.7 °F /  -4.6 °C 30.22in /  1023.2hPa West 3.5mph /  5.6km/h 3.5mph /  5.6km/h 81% 0.00in /  0mm WeatherDisplay:10.37 W/m2 SCT
02:15 28.6 °F /  -1.9 °C 23.5 °F /  -4.7 °C 30.22in /  1023.2hPa WSW 3.5mph /  5.6km/h 3.5mph /  5.6km/h 81% 0.00in /  0mm WeatherDisplay:10.37 W/m2 SCT
02:20 28.5 °F /  -1.9 °C 23.4 °F /  -4.8 °C 30.23in /  1023.6hPa SW 4.0mph /  6.4km/h 4.0mph /  6.4km/h 81% 0.00in /  0mm WeatherDisplay:10.37 W/m2 SCT
02:25 28.5 °F /  -1.9 °C 23.7 °F /  -4.6 °C 30.23in /  1023.6hPa WSW 6.9mph /  11.1km/h 6.9mph /  11.1km/h 82% 0.00in /  0mm WeatherDisplay:10.37 W/m2 BKN
02:30 28.6 °F /  -1.9 °C 23.5 °F /  -4.7 °C 30.23in /  1023.6hPa SW 5.8mph /  9.3km/h 5.8mph /  9.3km/h 81% 0.00in /  0mm WeatherDisplay:10.37 W/m2 BKN
02:35 28.6 °F /  -1.9 °C 23.5 °F /  -4.7 °C 30.23in /  1023.6hPa WSW 5.8mph /  9.3km/h 5.8mph /  9.3km/h 81% 0.00in /  0mm WeatherDisplay:10.37 W/m2 BKN
02:50 28.5 °F /  -1.9 °C 23.4 °F /  -4.8 °C 30.23in /  1023.6hPa WSW 3.5mph /  5.6km/h 3.5mph /  5.6km/h 81% 0.00in /  0mm WeatherDisplay:10.37 W/m2 BKN
02:55 28.4 °F /  -2 °C 23.6 °F /  -4.7 °C 30.23in /  1023.6hPa WSW 3.5mph /  5.6km/h 3.5mph /  5.6km/h 82% 0.00in /  0mm WeatherDisplay:10.37 W/m2 BKN
03:00 28.3 °F /  -2.1 °C 23.5 °F /  -4.7 °C 30.23in /  1023.6hPa SW 4.6mph /  7.4km/h 4.6mph /  7.4km/h 82% 0.00in /  0mm WeatherDisplay:10.37 W/m2 BKN
03:05 28.4 °F /  -2 °C 23.3 °F /  -4.8 °C 30.23in /  1023.6hPa WSW 5.0mph /  8km/h 5.0mph /  8km/h 81% 0.00in /  0mm WeatherDisplay:10.37 W/m2 OVC
03:15 28.6 °F /  -1.9 °C 23.5 °F /  -4.7 °C 30.24in /  1023.9hPa WSW 10.0mph /  16.1km/h 10.0mph /  16.1km/h 81% 0.00in /  0mm WeatherDisplay:10.37 W/m2 OVC
03:20 28.6 °F /  -1.9 °C 23.5 °F /  -4.7 °C 30.24in /  1023.9hPa WSW 5.8mph /  9.3km/h 5.8mph /  9.3km/h 81% 0.00in /  0mm WeatherDisplay:10.37 W/m2 OVC
03:25 28.6 °F /  -1.9 °C 23.5 °F /  -4.7 °C 30.23in /  1023.6hPa WSW 4.0mph /  6.4km/h 4.0mph /  6.4km/h 81% 0.00in /  0mm WeatherDisplay:10.37 W/m2 OVC
03:30 28.5 °F /  -1.9 °C 23.4 °F /  -4.8 °C 30.24in /  1023.9hPa West 6.0mph /  9.7km/h 6.0mph /  9.7km/h 81% 0.00in /  0mm WeatherDisplay:10.37 W/m2 OVC
03:45 28.0 °F /  -2.2 °C 23.2 °F /  -4.9 °C 30.24in /  1023.9hPa WSW 3.5mph /  5.6km/h 3.5mph /  5.6km/h 82% 0.00in /  0mm WeatherDisplay:10.37 W/m2 OVC
03:50 27.7 °F /  -2.4 °C 23.2 °F /  -4.9 °C 30.24in /  1023.9hPa SW 3.5mph /  5.6km/h 3.5mph /  5.6km/h 83% 0.00in /  0mm WeatherDisplay:10.37 W/m2 BKN
03:55 27.3 °F /  -2.6 °C 23.1 °F /  -4.9 °C 30.24in /  1023.9hPa SW 4.0mph /  6.4km/h 4.0mph /  6.4km/h 84% 0.00in /  0mm WeatherDisplay:10.37 W/m2 BKN
04:00 27.2 °F /  -2.7 °C 23.0 °F /  -5 °C 30.24in /  1023.9hPa WSW 4.0mph /  6.4km/h 4.0mph /  6.4km/h 84% 0.00in /  0mm WeatherDisplay:10.37 W/m2 BKN
04:05 27.1 °F /  -2.7 °C 23.2 °F /  -4.9 °C 30.24in /  1023.9hPa WSW 3.5mph /  5.6km/h 3.5mph /  5.6km/h 85% 0.00in /  0mm WeatherDisplay:10.37 W/m2 BKN
04:10 27.0 °F /  -2.8 °C 23.1 °F /  -4.9 °C 30.24in /  1023.9hPa SW 4.0mph /  6.4km/h 4.0mph /  6.4km/h 85% 0.00in /  0mm WeatherDisplay:10.37 W/m2 OVC
04:20 27.0 °F /  -2.8 °C 23.1 °F /  -4.9 °C 30.24in /  1023.9hPa WSW 5.0mph /  8km/h 5.0mph /  8km/h 85% 0.00in /  0mm WeatherDisplay:10.37 W/m2 OVC
04:25 26.9 °F /  -2.8 °C 23.0 °F /  -5 °C 30.25in /  1024.3hPa SW 3.5mph /  5.6km/h 3.5mph /  5.6km/h 85% 0.00in /  0mm WeatherDisplay:10.37 W/m2 OVC
04:35 26.8 °F /  -2.9 °C 23.2 °F /  -4.9 °C 30.25in /  1024.3hPa SSW 3.5mph /  5.6km/h 3.5mph /  5.6km/h 86% 0.00in /  0mm WeatherDisplay:10.37 W/m2 OVC
04:40 26.8 °F /  -2.9 °C 23.2 °F /  -4.9 °C 30.25in /  1024.3hPa SW 3.5mph /  5.6km/h 3.5mph /  5.6km/h 86% 0.00in /  0mm WeatherDisplay:10.37 W/m2 OVC
04:45 26.7 °F /  -2.9 °C 23.1 °F /  -4.9 °C 30.25in /  1024.3hPa SW 3.5mph /  5.6km/h 3.5mph /  5.6km/h 86% 0.00in /  0mm WeatherDisplay:10.37 W/m2 OVC
04:50 26.6 °F /  -3 °C 23.0 °F /  -5 °C 30.25in /  1024.3hPa SW 3.5mph /  5.6km/h 3.5mph /  5.6km/h 86% 0.00in /  0mm WeatherDisplay:10.37 W/m2 BKN
04:55 26.6 °F /  -3 °C 23.0 °F /  -5 °C 30.25in /  1024.3hPa SW 4.0mph /  6.4km/h 4.0mph /  6.4km/h 86% 0.00in /  0mm WeatherDisplay:10.37 W/m2 BKN
05:00 26.6 °F /  -3 °C 23.0 °F /  -5 °C 30.26in /  1024.6hPa SW 3.5mph /  5.6km/h 3.5mph /  5.6km/h 86% 0.00in /  0mm WeatherDisplay:10.37 W/m2 BKN
05:05 26.5 °F /  -3.1 °C 23.2 °F /  -4.9 °C 30.26in /  1024.6hPa WSW 3.5mph /  5.6km/h 3.5mph /  5.6km/h 87% 0.00in /  0mm WeatherDisplay:10.37 W/m2 BKN
05:10 26.4 °F /  -3.1 °C 23.1 °F /  -4.9 °C 30.26in /  1024.6hPa SW 3.5mph /  5.6km/h 3.5mph /  5.6km/h 87% 0.00in /  0mm WeatherDisplay:10.37 W/m2 SCT
05:15 26.2 °F /  -3.2 °C 22.9 °F /  -5.1 °C 30.26in /  1024.6hPa SW 5.0mph /  8km/h 5.0mph /  8km/h 87% 0.00in /  0mm WeatherDisplay:10.37 W/m2 SCT
05:20 26.1 °F /  -3.3 °C 22.8 °F /  -5.1 °C 30.26in /  1024.6hPa SW 5.0mph /  8km/h 5.0mph /  8km/h 87% 0.00in /  0mm WeatherDisplay:10.37 W/m2 SCT
05:30 26.2 °F /  -3.2 °C 22.9 °F /  -5.1 °C 30.27in /  1024.9hPa WSW 5.0mph /  8km/h 5.0mph /  8km/h 87% 0.00in /  0mm WeatherDisplay:10.37 W/m2 SCT
05:40 26.2 °F /  -3.2 °C 22.9 °F /  -5.1 °C 30.27in /  1024.9hPa WSW 4.0mph /  6.4km/h 4.0mph /  6.4km/h 87% 0.00in /  0mm WeatherDisplay:10.37 W/m2 SCT
05:45 26.2 °F /  -3.2 °C 22.9 °F /  -5.1 °C 30.27in /  1024.9hPa SW 3.5mph /  5.6km/h 3.5mph /  5.6km/h 87% 0.00in /  0mm WeatherDisplay:10.37 W/m2 SCT
05:50 26.2 °F /  -3.2 °C 22.9 °F /  -5.1 °C 30.27in /  1024.9hPa WSW 4.0mph /  6.4km/h 4.0mph /  6.4km/h 87% 0.00in /  0mm WeatherDisplay:10.37 W/m2 SCT
06:05 25.9 °F /  -3.4 °C 22.6 °F /  -5.2 °C 30.27in /  1024.9hPa West 3.5mph /  5.6km/h 3.5mph /  5.6km/h 87% 0.00in /  0mm WeatherDisplay:10.37 W/m2 SCT
06:15 25.5 °F /  -3.6 °C 22.4 °F /  -5.3 °C 30.27in /  1024.9hPa West 2.3mph /  3.7km/h 2.3mph /  3.7km/h 88% 0.00in /  0mm WeatherDisplay:10.37 W/m2 SCT
06:20 25.4 °F /  -3.7 °C 22.3 °F /  -5.4 °C 30.27in /  1024.9hPa West 2.3mph /  3.7km/h 2.3mph /  3.7km/h 88% 0.00in /  0mm WeatherDisplay:10.37 W/m2 SCT
06:30 25.3 °F /  -3.7 °C 22.5 °F /  -5.3 °C 30.28in /  1025.3hPa West 3.5mph /  5.6km/h 3.5mph /  5.6km/h 89% 0.00in /  0mm WeatherDisplay:10.37 W/m2 CLR
06:35 25.2 °F /  -3.8 °C 22.4 °F /  -5.3 °C 30.28in /  1025.3hPa West 3.5mph /  5.6km/h 3.5mph /  5.6km/h 89% 0.00in /  0mm WeatherDisplay:10.37 W/m2 CLR
06:40 25.1 °F /  -3.8 °C 22.3 °F /  -5.4 °C 30.29in /  1025.6hPa West 2.3mph /  3.7km/h 2.3mph /  3.7km/h 89% 0.00in /  0mm WeatherDisplay:10.37 W/m2 CLR
06:50 24.9 °F /  -3.9 °C 22.1 °F /  -5.5 °C 30.29in /  1025.6hPa West 2.3mph /  3.7km/h 2.3mph /  3.7km/h 89% 0.00in /  0mm WeatherDisplay:10.37 W/m2 CLR
06:55 24.8 °F /  -4 °C 22.0 °F /  -5.6 °C 30.29in /  1025.6hPa West 2.3mph /  3.7km/h 2.3mph /  3.7km/h 89% 0.00in /  0mm WeatherDisplay:10.37 W/m2 CLR
07:00 24.6 °F /  -4.1 °C 21.8 °F /  -5.7 °C 30.30in /  1026hPa West 3.0mph /  4.8km/h 3.0mph /  4.8km/h 89% 0.00in /  0mm WeatherDisplay:10.37 W/m2 CLR
07:05 24.5 °F /  -4.2 °C 22.0 °F /  -5.6 °C 30.29in /  1025.6hPa West 2.3mph /  3.7km/h 2.3mph /  3.7km/h 90% 0.00in /  0mm WeatherDisplay:10.37 W/m2 CLR
07:15 24.5 °F /  -4.2 °C 22.0 °F /  -5.6 °C 30.30in /  1026hPa West 2.3mph /  3.7km/h 2.3mph /  3.7km/h 90% 0.00in /  0mm WeatherDisplay:10.37 W/m2 CLR
07:20 24.4 °F /  -4.2 °C 21.9 °F /  -5.6 °C 30.30in /  1026hPa West 2.3mph /  3.7km/h 2.3mph /  3.7km/h 90% 0.00in /  0mm WeatherDisplay:10.37 W/m2 CLR
07:25 24.3 °F /  -4.3 °C 21.8 °F /  -5.7 °C 30.31in /  1026.3hPa West 2.3mph /  3.7km/h 2.3mph /  3.7km/h 90% 0.00in /  0mm WeatherDisplay:10.37 W/m2 CLR
07:30 24.4 °F /  -4.2 °C 21.9 °F /  -5.6 °C 30.31in /  1026.3hPa West 2.3mph /  3.7km/h 2.3mph /  3.7km/h 90% 0.00in /  0mm WeatherDisplay:10.37 W/m2 CLR
07:35 24.4 °F /  -4.2 °C 21.9 °F /  -5.6 °C 30.31in /  1026.3hPa West 2.3mph /  3.7km/h 2.3mph /  3.7km/h 90% 0.00in /  0mm WeatherDisplay:10.37 W/m2 CLR
07:40 24.6 °F /  -4.1 °C 22.1 °F /  -5.5 °C 30.31in /  1026.3hPa West 2.3mph /  3.7km/h 2.3mph /  3.7km/h 90% 0.00in /  0mm WeatherDisplay:10.37 W/m2 CLR
07:45 24.7 °F /  -4.1 °C 22.4 °F /  -5.3 °C 30.32in /  1026.6hPa WSW 3.5mph /  5.6km/h 3.5mph /  5.6km/h 91% 0.00in /  0mm WeatherDisplay:10.37 W/m2 CLR
07:50 24.8 °F /  -4 °C 22.3 °F /  -5.4 °C 30.32in /  1026.6hPa WSW 3.5mph /  5.6km/h 3.5mph /  5.6km/h 90% 0.00in /  0mm WeatherDisplay:10.37 W/m2 CLR
07:55 24.9 °F /  -3.9 °C 22.4 °F /  -5.3 °C 30.32in /  1026.6hPa WSW 2.3mph /  3.7km/h 2.3mph /  3.7km/h 90% 0.00in /  0mm WeatherDisplay:10.37 W/m2 CLR
08:00 25.1 °F /  -3.8 °C 22.6 °F /  -5.2 °C 30.32in /  1026.6hPa SW 3.5mph /  5.6km/h 3.5mph /  5.6km/h 90% 0.00in /  0mm WeatherDisplay:10.37 W/m2 CLR
08:05 25.3 °F /  -3.7 °C 22.8 °F /  -5.1 °C 30.33in /  1027hPa SW 3.5mph /  5.6km/h 3.5mph /  5.6km/h 90% 0.00in /  0mm WeatherDisplay:10.37 W/m2 SCT
08:15 25.6 °F /  -3.6 °C 23.1 °F /  -4.9 °C 30.33in /  1027hPa SW 3.5mph /  5.6km/h 3.5mph /  5.6km/h 90% 0.00in /  0mm WeatherDisplay:10.37 W/m2 SCT
08:30 26.6 °F /  -3 °C 24.1 °F /  -4.4 °C 30.33in /  1027hPa WSW 4.0mph /  6.4km/h 4.0mph /  6.4km/h 90% 0.00in /  0mm WeatherDisplay:10.37 W/m2 SCT
08:40 27.2 °F /  -2.7 °C 24.4 °F /  -4.2 °C 30.33in /  1027hPa SSW 3.5mph /  5.6km/h 3.5mph /  5.6km/h 89% 0.00in /  0mm WeatherDisplay:10.37 W/m2 SCT
08:45 27.6 °F /  -2.4 °C 24.8 °F /  -4 °C 30.34in /  1027.3hPa West 6.0mph /  9.7km/h 6.0mph /  9.7km/h 89% 0.00in /  0mm WeatherDisplay:10.37 W/m2 SCT
08:50 28.1 °F /  -2.2 °C 25.3 °F /  -3.7 °C 30.34in /  1027.3hPa WSW 7.0mph /  11.3km/h 7.0mph /  11.3km/h 89% 0.00in /  0mm WeatherDisplay:10.37 W/m2 SCT
08:55 28.3 °F /  -2.1 °C 25.2 °F /  -3.8 °C 30.34in /  1027.3hPa West 3.5mph /  5.6km/h 3.5mph /  5.6km/h 88% 0.00in /  0mm WeatherDisplay:10.37 W/m2 SCT
09:00 28.7 °F /  -1.8 °C 25.3 °F /  -3.7 °C 30.34in /  1027.3hPa WSW 9.0mph /  14.5km/h 9.0mph /  14.5km/h 87% 0.00in /  0mm WeatherDisplay:10.37 W/m2 SCT
09:05 29.1 °F /  -1.6 °C 26.0 °F /  -3.3 °C 30.34in /  1027.3hPa WSW 6.9mph /  11.1km/h 6.9mph /  11.1km/h 88% 0.00in /  0mm WeatherDisplay:10.37 W/m2 SCT
09:10 29.5 °F /  -1.4 °C 26.1 °F /  -3.3 °C 30.35in /  1027.7hPa SW 6.0mph /  9.7km/h 6.0mph /  9.7km/h 87% 0.00in /  0mm WeatherDisplay:10.37 W/m2 SCT
09:15 29.9 °F /  -1.2 °C 26.2 °F /  -3.2 °C 30.35in /  1027.7hPa WSW 7.0mph /  11.3km/h 7.0mph /  11.3km/h 86% 0.00in /  0mm WeatherDisplay:10.37 W/m2 SCT
09:20 30.1 °F /  -1.1 °C 26.4 °F /  -3.1 °C 30.35in /  1027.7hPa WSW 9.2mph /  14.8km/h 9.2mph /  14.8km/h 86% 0.00in /  0mm WeatherDisplay:10.37 W/m2 SCT
09:30 30.5 °F /  -0.8 °C 26.5 °F /  -3.1 °C 30.35in /  1027.7hPa SW 8.1mph /  13km/h 8.1mph /  13km/h 85% 0.00in /  0mm WeatherDisplay:10.37 W/m2 CLR
09:35 30.6 °F /  -0.8 °C 26.6 °F /  -3 °C 30.35in /  1027.7hPa West 8.1mph /  13km/h 8.1mph /  13km/h 85% 0.00in /  0mm WeatherDisplay:10.37 W/m2 CLR
09:40 31.1 °F /  -0.5 °C 26.8 °F /  -2.9 °C 30.35in /  1027.7hPa WSW 7.0mph /  11.3km/h 7.0mph /  11.3km/h 84% 0.00in /  0mm WeatherDisplay:10.37 W/m2 CLR
09:50 31.8 °F /  -0.1 °C 26.9 °F /  -2.8 °C 30.35in /  1027.7hPa WSW 7.0mph /  11.3km/h 7.0mph /  11.3km/h 82% 0.00in /  0mm WeatherDisplay:10.37 W/m2 CLR
09:55 32.1 °F /  0.1 °C 27.2 °F /  -2.7 °C 30.35in /  1027.7hPa West 8.1mph /  13km/h 8.1mph /  13km/h 82% 0.00in /  0mm WeatherDisplay:10.37 W/m2 CLR
10:05 32.7 °F /  0.4 °C 26.9 °F /  -2.8 °C 30.36in /  1028hPa West 6.0mph /  9.7km/h 6.0mph /  9.7km/h 79% 0.00in /  0mm WeatherDisplay:10.37 W/m2 CLR
10:10 32.9 °F /  0.5 °C 27.1 °F /  -2.7 °C 30.36in /  1028hPa WSW 5.8mph /  9.3km/h 5.8mph /  9.3km/h 79% 0.00in /  0mm WeatherDisplay:10.37 W/m2 CLR
10:15 33.1 °F /  0.6 °C 27.3 °F /  -2.6 °C 30.36in /  1028hPa SW 5.8mph /  9.3km/h 5.8mph /  9.3km/h 79% 0.00in /  0mm WeatherDisplay:10.37 W/m2 CLR
10:20 33.7 °F /  0.9 °C 27.6 °F /  -2.4 °C 30.36in /  1028hPa SSW 5.0mph /  8km/h 5.0mph /  8km/h 78% 0.00in /  0mm WeatherDisplay:10.37 W/m2 CLR
10:25 33.9 °F /  1.1 °C 27.1 °F /  -2.7 °C 30.36in /  1028hPa SW 7.0mph /  11.3km/h 7.0mph /  11.3km/h 76% 0.00in /  0mm WeatherDisplay:10.37 W/m2 CLR
10:30 34.1 °F /  1.2 °C 26.7 °F /  -2.9 °C 30.35in /  1027.7hPa West 6.9mph /  11.1km/h 6.9mph /  11.1km/h 74% 0.00in /  0mm WeatherDisplay:10.37 W/m2 CLR
10:35 34.9 °F /  1.6 °C 27.8 °F /  -2.3 °C 30.35in /  1027.7hPa West 6.9mph /  11.1km/h 6.9mph /  11.1km/h 75% 0.00in /  0mm WeatherDisplay:10.37 W/m2 CLR
10:40 35.4 °F /  1.9 °C 27.3 °F /  -2.6 °C 30.35in /  1027.7hPa West 4.0mph /  6.4km/h 4.0mph /  6.4km/h 72% 0.00in /  0mm WeatherDisplay:10.37 W/m2 CLR
10:45 35.3 °F /  1.8 °C 26.8 °F /  -2.9 °C 30.35in /  1027.7hPa WSW 6.9mph /  11.1km/h 6.9mph /  11.1km/h 71% 0.00in /  0mm WeatherDisplay:10.37 W/m2 CLR
11:00 36.5 °F /  2.5 °C 26.9 °F /  -2.8 °C 30.35in /  1027.7hPa West 6.9mph /  11.1km/h 6.9mph /  11.1km/h 68% 0.00in /  0mm WeatherDisplay:10.37 W/m2 CLR
11:05 36.6 °F /  2.6 °C 25.9 °F /  -3.4 °C 30.36in /  1028hPa WSW 6.9mph /  11.1km/h 6.9mph /  11.1km/h 65% 0.00in /  0mm WeatherDisplay:10.37 W/m2 CLR
11:10 36.9 °F /  2.7 °C 26.6 °F /  -3 °C 30.35in /  1027.7hPa WSW 4.0mph /  6.4km/h 4.0mph /  6.4km/h 66% 0.00in /  0mm WeatherDisplay:10.37 W/m2 CLR
11:15 37.6 °F /  3.1 °C 26.9 °F /  -2.8 °C 30.35in /  1027.7hPa WSW 4.0mph /  6.4km/h 4.0mph /  6.4km/h 65% 0.00in /  0mm WeatherDisplay:10.37 W/m2 CLR
11:25 38.3 °F /  3.5 °C 25.6 °F /  -3.6 °C 30.35in /  1027.7hPa SW 5.8mph /  9.3km/h 5.8mph /  9.3km/h 60% 0.00in /  0mm WeatherDisplay:10.37 W/m2 CLR
11:30 38.6 °F /  3.7 °C 25.1 °F /  -3.8 °C 30.35in /  1027.7hPa SW 6.9mph /  11.1km/h 6.9mph /  11.1km/h 58% 0.00in /  0mm WeatherDisplay:10.37 W/m2 CLR
11:35 38.7 °F /  3.7 °C 24.3 °F /  -4.3 °C 30.34in /  1027.3hPa SW 5.8mph /  9.3km/h 5.8mph /  9.3km/h 56% 0.00in /  0mm WeatherDisplay:10.37 W/m2 CLR
11:40 39.2 °F /  4 °C 25.6 °F /  -3.6 °C 30.34in /  1027.3hPa WSW 3.5mph /  5.6km/h 3.5mph /  5.6km/h 58% 0.00in /  0mm WeatherDisplay:10.37 W/m2 CLR
11:50 39.7 °F /  4.3 °C 24.4 °F /  -4.2 °C 30.34in /  1027.3hPa WNW 4.6mph /  7.4km/h 4.6mph /  7.4km/h 54% 0.00in /  0mm WeatherDisplay:10.37 W/m2 CLR
11:55 40.1 °F /  4.5 °C 24.8 °F /  -4 °C 30.33in /  1027hPa West 3.5mph /  5.6km/h 3.5mph /  5.6km/h 54% 0.00in /  0mm WeatherDisplay:10.37 W/m2 CLR
12:00 40.5 °F /  4.7 °C 26.0 °F /  -3.3 °C 30.33in /  1027hPa West 6.9mph /  11.1km/h 6.9mph /  11.1km/h 56% 0.00in /  0mm WeatherDisplay:10.37 W/m2 CLR
12:10 41.4 °F /  5.2 °C 25.1 °F /  -3.8 °C 30.33in /  1027hPa WSW 5.8mph /  9.3km/h 5.8mph /  9.3km/h 52% 0.00in /  0mm WeatherDisplay:10.37 W/m2 CLR
12:15 41.7 °F /  5.4 °C 25.4 °F /  -3.7 °C 30.33in /  1027hPa SW 4.0mph /  6.4km/h 4.0mph /  6.4km/h 52% 0.00in /  0mm WeatherDisplay:10.37 W/m2 CLR
12:20 41.6 °F /  5.3 °C 23.8 °F /  -4.6 °C 30.33in /  1027hPa WSW 6.9mph /  11.1km/h 6.9mph /  11.1km/h 49% 0.00in /  0mm WeatherDisplay:10.37 W/m2 CLR
12:25 41.3 °F /  5.2 °C 23.1 °F /  -4.9 °C 30.33in /  1027hPa WSW 6.9mph /  11.1km/h 6.9mph /  11.1km/h 48% 0.00in /  0mm WeatherDisplay:10.37 W/m2 CLR
12:30 41.5 °F /  5.3 °C 24.2 °F /  -4.3 °C 30.33in /  1027hPa West 4.6mph /  7.4km/h 4.6mph /  7.4km/h 50% 0.00in /  0mm WeatherDisplay:10.37 W/m2 CLR
12:40 42.7 °F /  5.9 °C 24.4 °F /  -4.2 °C 30.33in /  1027hPa West 5.8mph /  9.3km/h 5.8mph /  9.3km/h 48% 0.00in /  0mm WeatherDisplay:10.37 W/m2 CLR
12:45 42.5 °F /  5.8 °C 23.2 °F /  -4.9 °C 30.33in /  1027hPa SW 6.9mph /  11.1km/h 6.9mph /  11.1km/h 46% 0.00in /  0mm WeatherDisplay:10.37 W/m2 CLR
12:50 42.9 °F /  6.1 °C 23.0 °F /  -5 °C 30.32in /  1026.6hPa South 6.9mph /  11.1km/h 6.9mph /  11.1km/h 45% 0.00in /  0mm WeatherDisplay:10.37 W/m2 CLR
12:57 43.6 °F /  6.4 °C 23.6 °F /  -4.7 °C 30.32in /  1026.6hPa West 3.5mph /  5.6km/h 3.5mph /  5.6km/h 45% 0.00in /  0mm WeatherDisplay:10.37 W/m2 CLR
13:00 43.6 °F /  6.4 °C 23.1 °F /  -4.9 °C 30.32in /  1026.6hPa West 7.0mph /  11.3km/h 7.0mph /  11.3km/h 44% 0.00in /  0mm WeatherDisplay:10.37 W/m2 CLR
13:02 43.5 °F /  6.4 °C 23.0 °F /  -5 °C 30.32in /  1026.6hPa West 6.0mph /  9.7km/h 6.0mph /  9.7km/h 44% 0.00in /  0mm WeatherDisplay:10.37 W/m2 CLR
13:12 43.7 °F /  6.5 °C 23.2 °F /  -4.9 °C 30.31in /  1026.3hPa WSW 8.0mph /  12.9km/h 8.0mph /  12.9km/h 44% 0.00in /  0mm WeatherDisplay:10.37 W/m2 CLR
13:17 44.0 °F /  6.7 °C 24.0 °F /  -4.4 °C 30.31in /  1026.3hPa West 8.1mph /  13km/h 8.1mph /  13km/h 45% 0.00in /  0mm WeatherDisplay:10.37 W/m2 CLR
13:22 44.0 °F /  6.7 °C 22.9 °F /  -5.1 °C 30.31in /  1026.3hPa SW 6.9mph /  11.1km/h 6.9mph /  11.1km/h 43% 0.00in /  0mm WeatherDisplay:10.37 W/m2 CLR
13:27 44.5 °F /  6.9 °C 24.5 °F /  -4.2 °C 30.30in /  1026hPa West 5.8mph /  9.3km/h 5.8mph /  9.3km/h 45% 0.00in /  0mm WeatherDisplay:10.37 W/m2 CLR
13:32 44.9 °F /  7.2 °C 23.7 °F /  -4.6 °C 30.30in /  1026hPa West 5.8mph /  9.3km/h 5.8mph /  9.3km/h 43% 0.00in /  0mm WeatherDisplay:10.37 W/m2 CLR
13:37 45.4 °F /  7.4 °C 24.2 °F /  -4.3 °C 30.30in /  1026hPa West 5.8mph /  9.3km/h 5.8mph /  9.3km/h 43% 0.00in /  0mm WeatherDisplay:10.37 W/m2 CLR
13:47 45.1 °F /  7.3 °C 24.5 °F /  -4.2 °C 30.30in /  1026hPa SW 8.1mph /  13km/h 8.1mph /  13km/h 44% 0.00in /  0mm WeatherDisplay:10.37 W/m2 CLR
13:53 45.7 °F /  7.6 °C 23.9 °F /  -4.5 °C 30.30in /  1026hPa West 4.0mph /  6.4km/h 4.0mph /  6.4km/h 42% 0.00in /  0mm WeatherDisplay:10.37 W/m2 CLR
13:58 46.1 °F /  7.8 °C 23.1 °F /  -4.9 °C 30.29in /  1025.6hPa SSW 4.6mph /  7.4km/h 4.6mph /  7.4km/h 40% 0.00in /  0mm WeatherDisplay:10.37 W/m2 CLR
14:08 46.4 °F /  8 °C 23.4 °F /  -4.8 °C 30.29in /  1025.6hPa SW 4.6mph /  7.4km/h 4.6mph /  7.4km/h 40% 0.00in /  0mm WeatherDisplay:10.37 W/m2 CLR
14:18 46.9 °F /  8.3 °C 23.2 °F /  -4.9 °C 30.29in /  1025.6hPa SSW 4.6mph /  7.4km/h 4.6mph /  7.4km/h 39% 0.00in /  0mm WeatherDisplay:10.37 W/m2 CLR
14:23 46.9 °F /  8.3 °C 23.2 °F /  -4.9 °C 30.29in /  1025.6hPa West 6.0mph /  9.7km/h 6.0mph /  9.7km/h 39% 0.00in /  0mm WeatherDisplay:10.37 W/m2 CLR
14:28 47.1 °F /  8.4 °C 24.0 °F /  -4.4 °C 30.29in /  1025.6hPa SW 3.5mph /  5.6km/h 3.5mph /  5.6km/h 40% 0.00in /  0mm WeatherDisplay:10.37 W/m2 CLR
14:33 47.8 °F /  8.8 °C 24.0 °F /  -4.4 °C 30.28in /  1025.3hPa SW 3.5mph /  5.6km/h 3.5mph /  5.6km/h 39% 0.00in /  0mm WeatherDisplay:10.37 W/m2 CLR
14:38 48.2 °F /  9 °C 23.7 °F /  -4.6 °C 30.28in /  1025.3hPa NW 3.5mph /  5.6km/h 3.5mph /  5.6km/h 38% 0.00in /  0mm WeatherDisplay:10.37 W/m2 CLR
14:43 48.3 °F /  9.1 °C 23.2 °F /  -4.9 °C 30.28in /  1025.3hPa SSW 3.5mph /  5.6km/h 3.5mph /  5.6km/h 37% 0.00in /  0mm WeatherDisplay:10.37 W/m2 CLR
14:48 47.7 °F /  8.7 °C 23.3 °F /  -4.8 °C 30.28in /  1025.3hPa WSW 3.5mph /  5.6km/h 3.5mph /  5.6km/h 38% 0.00in /  0mm WeatherDisplay:10.37 W/m2 CLR
14:53 47.5 °F /  8.6 °C 22.5 °F /  -5.3 °C 30.27in /  1024.9hPa West 6.0mph /  9.7km/h 6.0mph /  9.7km/h 37% 0.00in /  0mm WeatherDisplay:10.37 W/m2 CLR
14:58 47.2 °F /  8.4 °C 22.2 °F /  -5.4 °C 30.27in /  1024.9hPa West 5.8mph /  9.3km/h 5.8mph /  9.3km/h 37% 0.00in /  0mm WeatherDisplay:10.37 W/m2 CLR
15:03 47.3 °F /  8.5 °C 21.0 °F /  -6.1 °C 30.27in /  1024.9hPa WSW 6.9mph /  11.1km/h 6.9mph /  11.1km/h 35% 0.00in /  0mm WeatherDisplay:10.37 W/m2 CLR
15:08 47.5 °F /  8.6 °C 21.8 °F /  -5.7 °C 30.26in /  1024.6hPa West 6.9mph /  11.1km/h 6.9mph /  11.1km/h 36% 0.00in /  0mm WeatherDisplay:10.37 W/m2 CLR
15:18 47.7 °F /  8.7 °C 21.3 °F /  -5.9 °C 30.26in /  1024.6hPa West 5.8mph /  9.3km/h 5.8mph /  9.3km/h 35% 0.00in /  0mm WeatherDisplay:10.37 W/m2 CLR
15:33 47.8 °F /  8.8 °C 20.1 °F /  -6.6 °C 30.26in /  1024.6hPa SW 3.5mph /  5.6km/h 3.5mph /  5.6km/h 33% 0.00in /  0mm WeatherDisplay:10.37 W/m2 CLR
15:38 47.5 °F /  8.6 °C 19.8 °F /  -6.8 °C 30.26in /  1024.6hPa West 3.5mph /  5.6km/h 3.5mph /  5.6km/h 33% 0.00in /  0mm WeatherDisplay:10.37 W/m2 CLR
15:43 47.6 °F /  8.7 °C 20.6 °F /  -6.3 °C 30.26in /  1024.6hPa West 2.0mph /  3.2km/h 2.0mph /  3.2km/h 34% 0.00in /  0mm WeatherDisplay:10.37 W/m2 CLR
15:48 47.6 °F /  8.7 °C 20.6 °F /  -6.3 °C 30.26in /  1024.6hPa WNW 2.3mph /  3.7km/h 2.3mph /  3.7km/h 34% 0.00in /  0mm WeatherDisplay:10.37 W/m2 CLR
15:53 47.8 °F /  8.8 °C 20.1 °F /  -6.6 °C 30.26in /  1024.6hPa West 2.3mph /  3.7km/h 2.3mph /  3.7km/h 33% 0.00in /  0mm WeatherDisplay:10.37 W/m2 CLR
15:58 47.6 °F /  8.7 °C 20.6 °F /  -6.3 °C 30.26in /  1024.6hPa West 3.5mph /  5.6km/h 3.5mph /  5.6km/h 34% 0.00in /  0mm WeatherDisplay:10.37 W/m2 CLR
16:03 47.7 °F /  8.7 °C 20.7 °F /  -6.3 °C 30.26in /  1024.6hPa West 2.3mph /  3.7km/h 2.3mph /  3.7km/h 34% 0.00in /  0mm WeatherDisplay:10.37 W/m2 CLR
16:13 47.7 °F /  8.7 °C 20.7 °F /  -6.3 °C 30.26in /  1024.6hPa West 2.3mph /  3.7km/h 2.3mph /  3.7km/h 34% 0.00in /  0mm WeatherDisplay:10.37 W/m2 CLR
16:20 47.3 °F /  8.5 °C 20.3 °F /  -6.5 °C 30.26in /  1024.6hPa West 2.3mph /  3.7km/h 2.3mph /  3.7km/h 34% 0.00in /  0mm WeatherDisplay:10.37 W/m2 CLR
16:30 46.8 °F /  8.2 °C 20.6 °F /  -6.3 °C 30.25in /  1024.3hPa West 2.3mph /  3.7km/h 2.3mph /  3.7km/h 35% 0.00in /  0mm WeatherDisplay:10.37 W/m2 CLR
16:35 46.7 °F /  8.2 °C 21.1 °F /  -6.1 °C 30.25in /  1024.3hPa West 2.3mph /  3.7km/h   36% 0.00in /  0mm WeatherDisplay:10.37 W/m2 CLR
16:40 46.7 °F /  8.2 °C 21.1 °F /  -6.1 °C 30.25in /  1024.3hPa West 1.0mph /  1.6km/h   36% 0.00in /  0mm WeatherDisplay:10.37 W/m2 CLR
16:45 46.5 °F /  8.1 °C 20.3 °F /  -6.5 °C 30.25in /  1024.3hPa West 1.2mph /  1.9km/h 1.2mph /  1.9km/h 35% 0.00in /  0mm WeatherDisplay:10.37 W/m2 CLR
16:50 46.3 °F /  7.9 °C 20.8 °F /  -6.2 °C 30.25in /  1024.3hPa West 1.2mph /  1.9km/h 1.2mph /  1.9km/h 36% 0.00in /  0mm WeatherDisplay:10.37 W/m2 CLR
16:55 46.0 °F /  7.8 °C 20.5 °F /  -6.4 °C 30.25in /  1024.3hPa Calm     36% 0.00in /  0mm WeatherDisplay:10.37 W/m2 CLR
17:00 45.8 °F /  7.7 °C 21.0 °F /  -6.1 °C 30.25in /  1024.3hPa Calm     37% 0.00in /  0mm WeatherDisplay:10.37 W/m2 CLR
17:05 45.6 °F /  7.6 °C 23.2 °F /  -4.9 °C 30.25in /  1024.3hPa Calm     41% 0.00in /  0mm WeatherDisplay:10.37 W/m2 CLR
17:10 44.7 °F /  7.1 °C 23.5 °F /  -4.7 °C 30.25in /  1024.3hPa Calm     43% 0.00in /  0mm WeatherDisplay:10.37 W/m2 CLR
17:15 44.5 °F /  6.9 °C 23.4 °F /  -4.8 °C 30.24in /  1023.9hPa West 1.0mph /  1.6km/h   43% 0.00in /  0mm WeatherDisplay:10.37 W/m2 CLR
17:20 43.6 °F /  6.4 °C 23.6 °F /  -4.7 °C 30.24in /  1023.9hPa West 1.2mph /  1.9km/h 1.2mph /  1.9km/h 45% 0.00in /  0mm WeatherDisplay:10.37 W/m2 CLR
17:25 42.8 °F /  6 °C 22.9 °F /  -5.1 °C 30.24in /  1023.9hPa West 1.2mph /  1.9km/h   45% 0.00in /  0mm WeatherDisplay:10.37 W/m2 CLR
17:30 42.3 °F /  5.7 °C 23.0 °F /  -5 °C 30.24in /  1023.9hPa West 2.3mph /  3.7km/h 2.3mph /  3.7km/h 46% 0.00in /  0mm WeatherDisplay:10.37 W/m2 CLR
17:35 41.3 °F /  5.2 °C 22.6 °F /  -5.2 °C 30.24in /  1023.9hPa West 1.2mph /  1.9km/h 1.2mph /  1.9km/h 47% 0.00in /  0mm WeatherDisplay:10.37 W/m2 CLR
17:40 40.7 °F /  4.8 °C 23.5 °F /  -4.7 °C 30.24in /  1023.9hPa West 2.0mph /  3.2km/h 2.0mph /  3.2km/h 50% 0.00in /  0mm WeatherDisplay:10.37 W/m2 CLR
17:45 40.1 °F /  4.5 °C 24.3 °F /  -4.3 °C 30.24in /  1023.9hPa West 3.5mph /  5.6km/h 3.5mph /  5.6km/h 53% 0.00in /  0mm WeatherDisplay:10.37 W/m2 CLR
17:50 39.5 °F /  4.2 °C 24.2 °F /  -4.3 °C 30.24in /  1023.9hPa West 3.5mph /  5.6km/h 3.5mph /  5.6km/h 54% 0.00in /  0mm WeatherDisplay:10.37 W/m2 CLR
18:00 38.5 °F /  3.6 °C 23.7 °F /  -4.6 °C 30.24in /  1023.9hPa West 2.3mph /  3.7km/h 2.3mph /  3.7km/h 55% 0.00in /  0mm WeatherDisplay:10.37 W/m2 CLR
18:05 37.9 °F /  3.3 °C 24.8 °F /  -4 °C 30.25in /  1024.3hPa West 2.3mph /  3.7km/h 2.3mph /  3.7km/h 59% 0.00in /  0mm WeatherDisplay:10.37 W/m2 CLR
18:10 37.4 °F /  3 °C 24.8 °F /  -4 °C 30.24in /  1023.9hPa West 2.3mph /  3.7km/h 2.3mph /  3.7km/h 60% 0.00in /  0mm WeatherDisplay:10.37 W/m2 CLR
18:15 37.2 °F /  2.9 °C 25.0 °F /  -3.9 °C 30.25in /  1024.3hPa West 2.3mph /  3.7km/h   61% 0.00in /  0mm WeatherDisplay:10.37 W/m2 CLR
18:25 36.5 °F /  2.5 °C 24.7 °F /  -4.1 °C 30.24in /  1023.9hPa West 1.2mph /  1.9km/h 1.2mph /  1.9km/h 62% 0.00in /  0mm WeatherDisplay:10.37 W/m2 CLR
18:30 35.9 °F /  2.2 °C 24.9 °F /  -3.9 °C 30.24in /  1023.9hPa West 3.5mph /  5.6km/h 3.5mph /  5.6km/h 64% 0.00in /  0mm WeatherDisplay:10.37 W/m2 CLR
18:35 35.8 °F /  2.1 °C 25.2 °F /  -3.8 °C 30.24in /  1023.9hPa West 2.3mph /  3.7km/h 2.3mph /  3.7km/h 65% 0.00in /  0mm WeatherDisplay:10.37 W/m2 CLR
18:45 35.2 °F /  1.8 °C 25.3 °F /  -3.7 °C 30.24in /  1023.9hPa West 2.3mph /  3.7km/h 2.3mph /  3.7km/h 67% 0.00in /  0mm WeatherDisplay:10.37 W/m2 CLR
18:50 34.8 °F /  1.6 °C 25.3 °F /  -3.7 °C 30.24in /  1023.9hPa West 2.3mph /  3.7km/h 2.3mph /  3.7km/h 68% 0.00in /  0mm WeatherDisplay:10.37 W/m2 CLR
19:00 34.5 °F /  1.4 °C 25.4 °F /  -3.7 °C 30.25in /  1024.3hPa West 2.3mph /  3.7km/h 2.3mph /  3.7km/h 69% 0.00in /  0mm WeatherDisplay:10.37 W/m2 CLR
19:05 34.5 °F /  1.4 °C 25.7 °F /  -3.5 °C 30.25in /  1024.3hPa West 3.5mph /  5.6km/h 3.5mph /  5.6km/h 70% 0.00in /  0mm WeatherDisplay:10.37 W/m2 CLR
19:10 34.3 °F /  1.3 °C 25.9 °F /  -3.4 °C 30.25in /  1024.3hPa West 3.5mph /  5.6km/h 3.5mph /  5.6km/h 71% 0.00in /  0mm WeatherDisplay:10.37 W/m2 CLR
19:15 34.1 °F /  1.2 °C 25.7 °F /  -3.5 °C 30.25in /  1024.3hPa West 3.5mph /  5.6km/h   71% 0.00in /  0mm WeatherDisplay:10.37 W/m2 CLR
19:21 34.0 °F /  1.1 °C 25.5 °F /  -3.6 °C 30.25in /  1024.3hPa Calm   3.0mph /  4.8km/h 71% 0.00in /  0mm WeatherDisplay:10.37 W/m2 CLR
19:26 33.9 °F /  1.1 °C 25.8 °F /  -3.4 °C 30.25in /  1024.3hPa West 3.5mph /  5.6km/h 3.5mph /  5.6km/h 72% 0.00in /  0mm WeatherDisplay:10.37 W/m2 CLR
19:30 33.9 °F /  1.1 °C 25.8 °F /  -3.4 °C 30.25in /  1024.3hPa West 3.5mph /  5.6km/h 3.5mph /  5.6km/h 72% 0.00in /  0mm WeatherDisplay:10.37 W/m2 CLR
19:32 33.9 °F /  1.1 °C 25.8 °F /  -3.4 °C 30.25in /  1024.3hPa West 2.3mph /  3.7km/h 2.3mph /  3.7km/h 72% 0.00in /  0mm WeatherDisplay:10.37 W/m2 CLR
19:33 33.9 °F /  1.1 °C 25.8 °F /  -3.4 °C 30.25in /  1024.3hPa West 2.3mph /  3.7km/h 2.3mph /  3.7km/h 72% 0.00in /  0mm WeatherDisplay:10.37 W/m2 CLR
19:38 33.9 °F /  1.1 °C 25.8 °F /  -3.4 °C 30.25in /  1024.3hPa West 2.3mph /  3.7km/h 2.3mph /  3.7km/h 72% 0.00in /  0mm WeatherDisplay:10.37 W/m2 CLR
Smyth Weather
Compliments of Weather Underground - 2.5 mb